Terminal Aerodrome Forecast
Issued by NWS

Home | Current Version | Previous Version | Text Only | Print | Product List | Glossary On
Versions: 1 2 3 4 5 6 7 8 9 10 11 12
000
FTUS42 KTBW 031735
TAFPIE
TAF
KPIE 031735Z 0318/0418 07010KT P6SM SKC
     FM040000 08014G20KT P6SM SKC
     FM040400 08008KT P6SM SKC
     FM041400 08012KT P6SM SCT250=

USA.gov is the U.S. government's official web portal to all federal, state and local government web resources and services.